Crystal Symphony — C6MY5 — position and weather

sailwx.info

Track history (hours):
 
Tides and Currents Weather Stations Pressure Air Temp Water Temp Dewpoint Dewpoint Depression Visibility Wind Speed Wind Dir Waves Ship Positions

Crystal Symphony

Operator: Crystal Cruises

Last reported at 2017-May-23 03:30 UTC. Time now 2017-May-27 02:17 UTC.
Position N 42°53' W 069°55'.

Length 238 m; draft 8 m.

Type: Ship. MMSI: 309168000.

Date/timePositionNaut miles runAvg speedWind from/ knotsBaromVisibWave heightAir tempDewpointWater temp
2017-May-23 03:30N 42°53' W 069°55'917.9
2017-May-23 03:00N 42°47' W 070°05'918.0
2017-May-23 02:30N 42°42' W 070°15'918.0
2017-May-23 02:00N 42°37' W 070°25'918.0
2017-May-23 01:30N 42°32' W 070°35'918.1
2017-May-23 01:00N 42°27' W 070°46'816.4
2017-May-23 00:31N 42°22' W 070°55'5 9.8
2017-May-23 00:00N 42°21' W 071°01'1 1.3
2017-May-22 23:26N 42°21' W 071°02'0 0.0
2017-May-22 22:58N 42°21' W 071°02'0 0.0
2017-May-22 22:28N 42°21' W 071°02'0 0.0
2017-May-22 21:58N 42°21' W 071°02'0 0.0
2017-May-22 21:28N 42°21' W 071°02'0 0.0
2017-May-22 21:00N 42°21' W 071°02'0 0.0
2017-May-22 20:30N 42°21' W 071°02'0 0.0
2017-May-22 20:00N 42°21' W 071°02'0 0.0
2017-May-22 19:30N 42°21' W 071°02'0 0.0
2017-May-22 19:00N 42°21' W 071°02'0 0.0
2017-May-22 18:29N 42°21' W 071°02'0 0.0
2017-May-22 17:59N 42°21' W 071°02'0 0.0
2017-May-22 17:29N 42°21' W 071°02'0 0.0
2017-May-22 16:59N 42°21' W 071°02'0 0.0
2017-May-22 16:29N 42°21' W 071°02'0 0.9
2017-May-22 16:00N 42°21' W 071°01'4 7.1
2017-May-22 15:30N 42°20' W 070°57'612.5
2017-May-22 15:00N 42°24' W 070°50'1211.7
2017-May-22 14:00N 42°22' W 070°34'612.7
2017-May-22 13:30N 42°22' W 070°25'713.0
2017-May-22 13:00N 42°21' W 070°17'713.0
2017-May-22 12:30N 42°20' W 070°08'612.5
2017-May-22 12:01N 42°18' W 069°60'713.4
2017-May-22 11:30N 42°12' W 069°55'713.5
2017-May-22 11:00N 42°06' W 069°51'713.3
2017-May-22 10:30N 42°00' W 069°47'611.7
2017-May-22 09:57N 41°54' W 069°43'511.0
2017-May-22 09:30N 41°50' W 069°40'611.7
2017-May-22 09:00N 41°45' W 069°37'611.8
2017-May-22 08:30N 41°40' W 069°33'611.9
2017-May-22 08:00N 41°34' W 069°30'611.9
2017-May-22 07:30N 41°29' W 069°26'611.7
2017-May-22 07:00N 41°24' W 069°23'611.9
2017-May-22 06:30N 41°19' W 069°19'111 4.7
2017-May-21 06:49N 40°52' W 071°42'412.6
2017-May-21 06:30N 40°50' W 071°47'712.6
2017-May-21 05:59N 40°47' W 071°54'5613.8
2017-May-21 01:57N 40°25' W 073°02'3417.3
2017-May-20 23:59N 40°26' W 073°47'613.3
2017-May-20 23:30N 40°29' W 073°54'816.4
2017-May-20 23:00N 40°34' W 074°02'714.7
2017-May-20 22:30N 40°42' W 074°02'5 9.3
2017-May-20 22:00N 40°46' W 074°00'0 0.4
2017-May-20 21:28N 40°46' W 073°60'0 0.0
2017-May-20 20:58N 40°46' W 073°60'0 0.0
2017-May-20 20:25N 40°46' W 073°60'0 0.0
2017-May-20 19:58N 40°46' W 073°60'0 0.0
2017-May-20 19:30N 40°46' W 073°60'0 0.0
2017-May-20 19:00N 40°46' W 073°60'0 0.0
2017-May-20 18:27N 40°46' W 073°60'0 0.0
2017-May-20 18:00N 40°46' W 073°60'0 0.0
2017-May-20 17:27N 40°46' W 073°60'0 0.0
2017-May-20 16:59N 40°46' W 073°60'0 0.0
2017-May-20 16:29N 40°46' W 073°60'0 0.0
2017-May-20 15:59N 40°46' W 073°60'0 0.0
2017-May-20 15:29N 40°46' W 073°60'0 0.0
2017-May-20 14:58N 40°46' W 073°60'0 0.0
2017-May-20 14:28N 40°46' W 073°60'0 0.0
2017-May-20 13:28N 40°46' W 073°60'0 0.0
2017-May-20 12:58N 40°46' W 073°60'0 0.0
2017-May-20 12:27N 40°46' W 073°60'0 0.0
2017-May-20 12:00N 40°46' W 073°60'0 0.0
2017-May-20 11:27N 40°46' W 073°60'0 0.0
2017-May-20 10:57N 40°46' W 073°60'0 0.0
2017-May-20 10:30N 40°46' W 073°60'0 0.0
2017-May-20 09:59N 40°46' W 073°60'0 0.0
2017-May-20 09:29N 40°46' W 073°60'0 0.0
2017-May-20 08:59N 40°46' W 073°60'0 0.0
2017-May-20 08:26N 40°46' W 073°60'0 0.0
2017-May-20 07:58N 40°46' W 073°60'0 0.0
2017-May-20 07:28N 40°46' W 073°60'0 0.0
2017-May-20 06:58N 40°46' W 073°60'0 0.0
2017-May-20 06:28N 40°46' W 073°60'0 0.0
2017-May-20 05:58N 40°46' W 073°60'0 0.0
2017-May-20 05:30N 40°46' W 073°60'0 0.0
2017-May-20 05:00N 40°46' W 073°60'0 0.0
2017-May-20 04:27N 40°46' W 073°60'0 0.0
2017-May-20 04:00N 40°46' W 073°60'0 0.0
2017-May-20 03:30N 40°46' W 073°60'0 0.0
2017-May-20 02:56N 40°46' W 073°60'0 0.0
2017-May-20 02:29N 40°46' W 073°60'0 0.0
2017-May-20 01:59N 40°46' W 073°60'0 0.0
2017-May-20 01:29N 40°46' W 073°60'0 0.0
2017-May-20 00:58N 40°46' W 073°60'0 0.0
2017-May-20 00:28N 40°46' W 073°60'0 0.0
2017-May-19 23:58N 40°46' W 073°60'0 0.0
2017-May-19 23:28N 40°46' W 073°60'0 0.0
2017-May-19 22:58N 40°46' W 073°60'0 0.0
2017-May-19 22:30N 40°46' W 073°60'0 0.0
2017-May-19 22:00N 40°46' W 073°60'0 0.0
2017-May-19 21:30N 40°46' W 073°60'0 0.0
2017-May-19 20:57N 40°46' W 073°60'0 0.0
2017-May-19 20:29N 40°46' W 073°60'0 0.0
2017-May-19 19:59N 40°46' W 073°60'0 0.0
2017-May-19 19:29N 40°46' W 073°60'0 0.0
2017-May-19 18:59N 40°46' W 073°60'0 0.0
2017-May-19 18:29N 40°46' W 073°60'0 0.0
2017-May-19 17:58N 40°46' W 073°60'0 0.0
2017-May-19 17:29N 40°46' W 073°60'0 0.0
2017-May-19 16:58N 40°46' W 073°60'0 0.0
2017-May-19 16:28N 40°46' W 073°60'0 0.0
2017-May-19 15:58N 40°46' W 073°60'0 0.0
2017-May-19 15:28N 40°46' W 073°60'0 0.0
2017-May-19 14:58N 40°46' W 073°60'0 0.0
2017-May-19 14:00N 40°46' W 073°60'0 0.0
2017-May-19 13:30N 40°46' W 073°60'0 0.0
2017-May-19 13:00N 40°46' W 073°60'0 0.0
2017-May-19 12:30N 40°46' W 073°60'0 0.0
2017-May-19 11:59N 40°46' W 073°60'0 0.0
2017-May-19 11:29N 40°46' W 073°60'0 0.0
2017-May-19 10:59N 40°46' W 073°60'0 0.0
2017-May-19 10:29N 40°46' W 073°60'0 0.0
2017-May-19 09:58N 40°46' W 073°60'0 0.0
2017-May-19 09:28N 40°46' W 073°60'0 0.0
2017-May-19 08:58N 40°46' W 073°60'0 0.0
2017-May-19 08:25N 40°46' W 073°60'0 0.0
2017-May-19 07:58N 40°46' W 073°60'0 0.0
2017-May-19 07:27N 40°46' W 073°60'0 0.0
2017-May-19 07:00N 40°46' W 073°60'0 0.0
2017-May-19 06:30N 40°46' W 073°60'0 0.0
2017-May-19 06:00N 40°46' W 073°60'0 0.0
2017-May-19 05:30N 40°46' W 073°60'0 0.0
2017-May-19 04:59N 40°46' W 073°60'0 0.0
2017-May-19 04:29N 40°46' W 073°60'0 0.0
2017-May-19 03:59N 40°46' W 073°60'0 0.0
2017-May-19 03:29N 40°46' W 073°60'0 0.0
2017-May-19 02:58N 40°46' W 073°60'0 0.0
2017-May-19 02:28N 40°46' W 073°60'0 0.0
2017-May-19 01:58N 40°46' W 073°60'0 0.0
2017-May-19 01:28N 40°46' W 073°60'0 0.0
2017-May-19 00:58N 40°46' W 073°60'0 0.0
2017-May-19 00:30N 40°46' W 073°60'0 0.0
2017-May-19 00:00N 40°46' W 073°60'0 0.0
2017-May-18 23:30N 40°46' W 073°60'0 0.0
2017-May-18 23:00N 40°46' W 073°60'0 0.0
2017-May-18 22:30N 40°46' W 073°60'0 0.0
2017-May-18 21:59N 40°46' W 073°60'0 0.0
2017-May-18 21:29N 40°46' W 073°60'0 0.0
2017-May-18 20:56N 40°46' W 073°60'0 0.0
2017-May-18 20:20N 40°46' W 073°60'0 0.0
2017-May-18 19:58N 40°46' W 073°60'0 0.0
2017-May-18 19:28N 40°46' W 073°60'0 0.0
2017-May-18 18:58N 40°46' W 073°60'0 0.0
2017-May-18 18:28N 40°46' W 073°60'0 0.0
2017-May-18 17:58N 40°46' W 073°60'0 0.0
2017-May-18 17:30N 40°46' W 073°60'0 0.0
2017-May-18 16:54N 40°46' W 073°60'0 0.0
2017-May-18 16:30N 40°46' W 073°60'0 0.0
2017-May-18 15:57N 40°46' W 073°60'0 0.0
2017-May-18 15:29N 40°46' W 073°60'0 0.0
2017-May-18 14:59N 40°46' W 073°60'0 0.0
2017-May-18 13:59N 40°46' W 073°60'0 0.0
2017-May-18 13:29N 40°46' W 073°60'0 0.0
2017-May-18 12:58N 40°46' W 073°60'0 0.0
2017-May-18 12:25N 40°46' W 073°60'0 0.0
2017-May-18 11:58N 40°46' W 073°60'0 0.0
2017-May-18 11:25N 40°46' W 073°60'0 0.1
2017-May-18 11:00N 40°46' W 073°60'2 3.3
2017-May-18 10:30N 40°45' W 074°01'510.2
2017-May-18 10:00N 40°40' W 074°03'713.8
2017-May-18 09:31N 40°33' W 074°02'713.9
2017-May-18 08:59N 40°29' W 073°54'612.9
2017-May-18 08:30N 40°25' W 073°47'1016.7
2017-May-18 07:53N 40°15' W 073°46'817.8
2017-May-18 07:27N 40°07' W 073°45'817.6
2017-May-18 07:00N 39°59' W 073°45'917.6
2017-May-18 06:30N 39°50' W 073°44'917.3
2017-May-18 06:00N 39°42' W 073°44'917.5
2017-May-18 05:30N 39°34' W 073°48'917.3
2017-May-18 05:00N 39°25' W 073°49'917.3
2017-May-18 04:29N 39°16' W 073°49'917.8
2017-May-18 04:00N 39°08' W 073°51'25218.0
2017-May-17 14:00N 35°02' W 075°03'1518.9
2017-May-17 13:12N 34°49' W 075°14'419.3
2017-May-17 12:59N 34°47' W 075°18'1021.0
2017-May-17 12:30N 34°39' W 075°27'1320.8
2017-May-17 11:53N 34°30' W 075°37'821.0
2017-May-17 11:30N 34°24' W 075°43'1121.2
2017-May-17 11:00N 34°16' W 075°52'1020.6
2017-May-17 10:30N 34°09' W 076°01'1019.3
2017-May-17 10:00N 34°03' W 076°10'1018.3
2017-May-17 09:27N 33°56' W 076°19'817.6
2017-May-17 08:59N 33°51' W 076°27'817.7
2017-May-17 08:30N 33°46' W 076°35'917.6
2017-May-17 08:00N 33°41' W 076°43'917.6
2017-May-17 07:30N 33°35' W 076°52'1017.7
2017-May-17 06:56N 33°29' W 077°01'818.1
2017-May-17 06:30N 33°24' W 077°09'3118.3
2017-May-17 04:48N 33°06' W 077°39'717.1
2017-May-17 04:24N 33°05' W 077°47'717.5
2017-May-17 04:00N 33°02' W 077°55'918.2
2017-May-17 03:30N 32°59' W 078°05'918.0
2017-May-17 03:01N 32°55' W 078°14'917.7
2017-May-17 02:31N 32°52' W 078°24'917.8
2017-May-17 02:00N 32°49' W 078°35'917.6
2017-May-17 01:30N 32°47' W 078°45'917.5
2017-May-17 00:58N 32°45' W 078°55'817.5
2017-May-17 00:30N 32°43' W 079°05'917.2
2017-May-17 00:00N 32°41' W 079°15'917.0
2017-May-16 23:30N 32°39' W 079°25'816.8
2017-May-16 23:00N 32°39' W 079°35'815.7
2017-May-16 22:30N 32°41' W 079°44'12 1.1
2017-May-16 11:36N 32°47' W 079°55'0 0.5
2017-May-16 11:26N 32°47' W 079°55'1 3.1
2017-May-16 11:00N 32°47' W 079°54'612.9
2017-May-16 10:30N 32°43' W 079°48'815.8
2017-May-16 10:00N 32°39' W 079°39'714.0
2017-May-16 09:30N 32°34' W 079°33'612.1
2017-May-16 09:00N 32°29' W 079°29'713.2
2017-May-16 08:30N 32°24' W 079°25'713.0
2017-May-16 07:59N 32°17' W 079°22'613.0
2017-May-16 07:30N 32°11' W 079°20'713.1
2017-May-16 07:00N 32°06' W 079°16'713.1
2017-May-16 06:30N 31°60' W 079°13'713.2
2017-May-16 06:00N 31°54' W 079°10'713.6
2017-May-16 05:30N 31°48' W 079°06'713.7
2017-May-16 05:00N 31°41' W 079°03'814.1
2017-May-16 04:26N 31°34' W 078°58'614.4
2017-May-16 04:00N 31°29' W 078°55'714.7
2017-May-16 03:30N 31°22' W 078°51'714.7
2017-May-16 03:00N 31°16' W 078°48'5615.6
2017-May-15 23:23N 30°25' W 078°19'1314.1
2017-May-15 22:29N 30°13' W 078°12'612.9
2017-May-15 22:00N 30°08' W 078°09'713.6
2017-May-15 21:30N 30°02' W 078°06'  
Track history (hours):
 
Tides and Currents Weather Stations Pressure Air Temp Water Temp Dewpoint Dewpoint Depression Visibility Wind Speed Wind Dir Waves Ship Positions

Crystal Symphony

Operator: Crystal Cruises

Last reported at 2017-May-23 03:30 UTC. Time now 2017-May-27 02:17 UTC.
Position N 42°53' W 069°55'.

Length 238 m; draft 8 m.

Type: Ship. MMSI: 309168000.

Date/timePositionNaut miles runAvg speedWind from/ knotsBaromVisibWave heightAir tempDewpointWater temp
2017-May-23 03:30N 42°53' W 069°55'917.9
2017-May-23 03:00N 42°47' W 070°05'918.0
2017-May-23 02:30N 42°42' W 070°15'918.0
2017-May-23 02:00N 42°37' W 070°25'918.0
2017-May-23 01:30N 42°32' W 070°35'918.1
2017-May-23 01:00N 42°27' W 070°46'816.4
2017-May-23 00:31N 42°22' W 070°55'5 9.8
2017-May-23 00:00N 42°21' W 071°01'1 1.3
2017-May-22 23:26N 42°21' W 071°02'0 0.0
2017-May-22 22:58N 42°21' W 071°02'0 0.0
2017-May-22 22:28N 42°21' W 071°02'0 0.0
2017-May-22 21:58N 42°21' W 071°02'0 0.0
2017-May-22 21:28N 42°21' W 071°02'0 0.0
2017-May-22 21:00N 42°21' W 071°02'0 0.0
2017-May-22 20:30N 42°21' W 071°02'0 0.0
2017-May-22 20:00N 42°21' W 071°02'0 0.0
2017-May-22 19:30N 42°21' W 071°02'0 0.0
2017-May-22 19:00N 42°21' W 071°02'0 0.0
2017-May-22 18:29N 42°21' W 071°02'0 0.0
2017-May-22 17:59N 42°21' W 071°02'0 0.0
2017-May-22 17:29N 42°21' W 071°02'0 0.0
2017-May-22 16:59N 42°21' W 071°02'0 0.0
2017-May-22 16:29N 42°21' W 071°02'0 0.9
2017-May-22 16:00N 42°21' W 071°01'4 7.1
2017-May-22 15:30N 42°20' W 070°57'612.5
2017-May-22 15:00N 42°24' W 070°50'1211.7
2017-May-22 14:00N 42°22' W 070°34'612.7
2017-May-22 13:30N 42°22' W 070°25'713.0
2017-May-22 13:00N 42°21' W 070°17'713.0
2017-May-22 12:30N 42°20' W 070°08'612.5
2017-May-22 12:01N 42°18' W 069°60'713.4
2017-May-22 11:30N 42°12' W 069°55'713.5
2017-May-22 11:00N 42°06' W 069°51'713.3
2017-May-22 10:30N 42°00' W 069°47'611.7
2017-May-22 09:57N 41°54' W 069°43'511.0
2017-May-22 09:30N 41°50' W 069°40'611.7
2017-May-22 09:00N 41°45' W 069°37'611.8
2017-May-22 08:30N 41°40' W 069°33'611.9
2017-May-22 08:00N 41°34' W 069°30'611.9
2017-May-22 07:30N 41°29' W 069°26'611.7
2017-May-22 07:00N 41°24' W 069°23'611.9
2017-May-22 06:30N 41°19' W 069°19'111 4.7
2017-May-21 06:49N 40°52' W 071°42'412.6
2017-May-21 06:30N 40°50' W 071°47'712.6
2017-May-21 05:59N 40°47' W 071°54'5613.8
2017-May-21 01:57N 40°25' W 073°02'3417.3
2017-May-20 23:59N 40°26' W 073°47'613.3
2017-May-20 23:30N 40°29' W 073°54'816.4
2017-May-20 23:00N 40°34' W 074°02'714.7
2017-May-20 22:30N 40°42' W 074°02'5 9.3
2017-May-20 22:00N 40°46' W 074°00'0 0.4
2017-May-20 21:28N 40°46' W 073°60'0 0.0
2017-May-20 20:58N 40°46' W 073°60'0 0.0
2017-May-20 20:25N 40°46' W 073°60'0 0.0
2017-May-20 19:58N 40°46' W 073°60'0 0.0
2017-May-20 19:30N 40°46' W 073°60'0 0.0
2017-May-20 19:00N 40°46' W 073°60'0 0.0
2017-May-20 18:27N 40°46' W 073°60'0 0.0
2017-May-20 18:00N 40°46' W 073°60'0 0.0
2017-May-20 17:27N 40°46' W 073°60'0 0.0
2017-May-20 16:59N 40°46' W 073°60'0 0.0
2017-May-20 16:29N 40°46' W 073°60'0 0.0
2017-May-20 15:59N 40°46' W 073°60'0 0.0
2017-May-20 15:29N 40°46' W 073°60'0 0.0
2017-May-20 14:58N 40°46' W 073°60'0 0.0
2017-May-20 14:28N 40°46' W 073°60'0 0.0
2017-May-20 13:28N 40°46' W 073°60'0 0.0
2017-May-20 12:58N 40°46' W 073°60'0 0.0
2017-May-20 12:27N 40°46' W 073°60'0 0.0
2017-May-20 12:00N 40°46' W 073°60'0 0.0
2017-May-20 11:27N 40°46' W 073°60'0 0.0
2017-May-20 10:57N 40°46' W 073°60'0 0.0
2017-May-20 10:30N 40°46' W 073°60'0 0.0
2017-May-20 09:59N 40°46' W 073°60'0 0.0
2017-May-20 09:29N 40°46' W 073°60'0 0.0
2017-May-20 08:59N 40°46' W 073°60'0 0.0
2017-May-20 08:26N 40°46' W 073°60'0 0.0
2017-May-20 07:58N 40°46' W 073°60'0 0.0
2017-May-20 07:28N 40°46' W 073°60'0 0.0
2017-May-20 06:58N 40°46' W 073°60'0 0.0
2017-May-20 06:28N 40°46' W 073°60'0 0.0
2017-May-20 05:58N 40°46' W 073°60'0 0.0
2017-May-20 05:30N 40°46' W 073°60'0 0.0
2017-May-20 05:00N 40°46' W 073°60'0 0.0
2017-May-20 04:27N 40°46' W 073°60'0 0.0
2017-May-20 04:00N 40°46' W 073°60'0 0.0
2017-May-20 03:30N 40°46' W 073°60'0 0.0
2017-May-20 02:56N 40°46' W 073°60'0 0.0
2017-May-20 02:29N 40°46' W 073°60'0 0.0
2017-May-20 01:59N 40°46' W 073°60'0 0.0
2017-May-20 01:29N 40°46' W 073°60'0 0.0
2017-May-20 00:58N 40°46' W 073°60'0 0.0
2017-May-20 00:28N 40°46' W 073°60'0 0.0
2017-May-19 23:58N 40°46' W 073°60'0 0.0
2017-May-19 23:28N 40°46' W 073°60'0 0.0
2017-May-19 22:58N 40°46' W 073°60'0 0.0
2017-May-19 22:30N 40°46' W 073°60'0 0.0
2017-May-19 22:00N 40°46' W 073°60'0 0.0
2017-May-19 21:30N 40°46' W 073°60'0 0.0
2017-May-19 20:57N 40°46' W 073°60'0 0.0
2017-May-19 20:29N 40°46' W 073°60'0 0.0
2017-May-19 19:59N 40°46' W 073°60'0 0.0
2017-May-19 19:29N 40°46' W 073°60'0 0.0
2017-May-19 18:59N 40°46' W 073°60'0 0.0
2017-May-19 18:29N 40°46' W 073°60'0 0.0
2017-May-19 17:58N 40°46' W 073°60'0 0.0
2017-May-19 17:29N 40°46' W 073°60'0 0.0
2017-May-19 16:58N 40°46' W 073°60'0 0.0
2017-May-19 16:28N 40°46' W 073°60'0 0.0
2017-May-19 15:58N 40°46' W 073°60'0 0.0
2017-May-19 15:28N 40°46' W 073°60'0 0.0
2017-May-19 14:58N 40°46' W 073°60'0 0.0
2017-May-19 14:00N 40°46' W 073°60'0 0.0
2017-May-19 13:30N 40°46' W 073°60'0 0.0
2017-May-19 13:00N 40°46' W 073°60'0 0.0
2017-May-19 12:30N 40°46' W 073°60'0 0.0
2017-May-19 11:59N 40°46' W 073°60'0 0.0
2017-May-19 11:29N 40°46' W 073°60'0 0.0
2017-May-19 10:59N 40°46' W 073°60'0 0.0
2017-May-19 10:29N 40°46' W 073°60'0 0.0
2017-May-19 09:58N 40°46' W 073°60'0 0.0
2017-May-19 09:28N 40°46' W 073°60'0 0.0
2017-May-19 08:58N 40°46' W 073°60'0 0.0
2017-May-19 08:25N 40°46' W 073°60'0 0.0
2017-May-19 07:58N 40°46' W 073°60'0 0.0
2017-May-19 07:27N 40°46' W 073°60'0 0.0
2017-May-19 07:00N 40°46' W 073°60'0 0.0
2017-May-19 06:30N 40°46' W 073°60'0 0.0
2017-May-19 06:00N 40°46' W 073°60'0 0.0
2017-May-19 05:30N 40°46' W 073°60'0 0.0
2017-May-19 04:59N 40°46' W 073°60'0 0.0
2017-May-19 04:29N 40°46' W 073°60'0 0.0
2017-May-19 03:59N 40°46' W 073°60'0 0.0
2017-May-19 03:29N 40°46' W 073°60'0 0.0
2017-May-19 02:58N 40°46' W 073°60'0 0.0
2017-May-19 02:28N 40°46' W 073°60'0 0.0
2017-May-19 01:58N 40°46' W 073°60'0 0.0
2017-May-19 01:28N 40°46' W 073°60'0 0.0
2017-May-19 00:58N 40°46' W 073°60'0 0.0
2017-May-19 00:30N 40°46' W 073°60'0 0.0
2017-May-19 00:00N 40°46' W 073°60'0 0.0
2017-May-18 23:30N 40°46' W 073°60'0 0.0
2017-May-18 23:00N 40°46' W 073°60'0 0.0
2017-May-18 22:30N 40°46' W 073°60'0 0.0
2017-May-18 21:59N 40°46' W 073°60'0 0.0
2017-May-18 21:29N 40°46' W 073°60'0 0.0
2017-May-18 20:56N 40°46' W 073°60'0 0.0
2017-May-18 20:20N 40°46' W 073°60'0 0.0
2017-May-18 19:58N 40°46' W 073°60'0 0.0
2017-May-18 19:28N 40°46' W 073°60'0 0.0
2017-May-18 18:58N 40°46' W 073°60'0 0.0
2017-May-18 18:28N 40°46' W 073°60'0 0.0
2017-May-18 17:58N 40°46' W 073°60'0 0.0
2017-May-18 17:30N 40°46' W 073°60'0 0.0
2017-May-18 16:54N 40°46' W 073°60'0 0.0
2017-May-18 16:30N 40°46' W 073°60'0 0.0
2017-May-18 15:57N 40°46' W 073°60'0 0.0
2017-May-18 15:29N 40°46' W 073°60'0 0.0
2017-May-18 14:59N 40°46' W 073°60'0 0.0
2017-May-18 13:59N 40°46' W 073°60'0 0.0
2017-May-18 13:29N 40°46' W 073°60'0 0.0
2017-May-18 12:58N 40°46' W 073°60'0 0.0
2017-May-18 12:25N 40°46' W 073°60'0 0.0
2017-May-18 11:58N 40°46' W 073°60'0 0.0
2017-May-18 11:25N 40°46' W 073°60'0 0.1
2017-May-18 11:00N 40°46' W 073°60'2 3.3
2017-May-18 10:30N 40°45' W 074°01'510.2
2017-May-18 10:00N 40°40' W 074°03'713.8
2017-May-18 09:31N 40°33' W 074°02'713.9
2017-May-18 08:59N 40°29' W 073°54'612.9
2017-May-18 08:30N 40°25' W 073°47'1016.7
2017-May-18 07:53N 40°15' W 073°46'817.8
2017-May-18 07:27N 40°07' W 073°45'817.6
2017-May-18 07:00N 39°59' W 073°45'917.6
2017-May-18 06:30N 39°50' W 073°44'917.3
2017-May-18 06:00N 39°42' W 073°44'917.5
2017-May-18 05:30N 39°34' W 073°48'917.3
2017-May-18 05:00N 39°25' W 073°49'917.3
2017-May-18 04:29N 39°16' W 073°49'917.8
2017-May-18 04:00N 39°08' W 073°51'25218.0
2017-May-17 14:00N 35°02' W 075°03'1518.9
2017-May-17 13:12N 34°49' W 075°14'419.3
2017-May-17 12:59N 34°47' W 075°18'1021.0
2017-May-17 12:30N 34°39' W 075°27'1320.8
2017-May-17 11:53N 34°30' W 075°37'821.0
2017-May-17 11:30N 34°24' W 075°43'1121.2
2017-May-17 11:00N 34°16' W 075°52'1020.6
2017-May-17 10:30N 34°09' W 076°01'1019.3
2017-May-17 10:00N 34°03' W 076°10'1018.3
2017-May-17 09:27N 33°56' W 076°19'817.6
2017-May-17 08:59N 33°51' W 076°27'817.7
2017-May-17 08:30N 33°46' W 076°35'917.6
2017-May-17 08:00N 33°41' W 076°43'917.6
2017-May-17 07:30N 33°35' W 076°52'1017.7
2017-May-17 06:56N 33°29' W 077°01'818.1
2017-May-17 06:30N 33°24' W 077°09'3118.3
2017-May-17 04:48N 33°06' W 077°39'717.1
2017-May-17 04:24N 33°05' W 077°47'717.5
2017-May-17 04:00N 33°02' W 077°55'918.2
2017-May-17 03:30N 32°59' W 078°05'918.0
2017-May-17 03:01N 32°55' W 078°14'917.7
2017-May-17 02:31N 32°52' W 078°24'917.8
2017-May-17 02:00N 32°49' W 078°35'917.6
2017-May-17 01:30N 32°47' W 078°45'917.5
2017-May-17 00:58N 32°45' W 078°55'817.5
2017-May-17 00:30N 32°43' W 079°05'917.2
2017-May-17 00:00N 32°41' W 079°15'917.0
2017-May-16 23:30N 32°39' W 079°25'816.8
2017-May-16 23:00N 32°39' W 079°35'815.7
2017-May-16 22:30N 32°41' W 079°44'12 1.1
2017-May-16 11:36N 32°47' W 079°55'0 0.5
2017-May-16 11:26N 32°47' W 079°55'1 3.1
2017-May-16 11:00N 32°47' W 079°54'612.9
2017-May-16 10:30N 32°43' W 079°48'815.8
2017-May-16 10:00N 32°39' W 079°39'714.0
2017-May-16 09:30N 32°34' W 079°33'612.1
2017-May-16 09:00N 32°29' W 079°29'713.2
2017-May-16 08:30N 32°24' W 079°25'713.0
2017-May-16 07:59N 32°17' W 079°22'613.0
2017-May-16 07:30N 32°11' W 079°20'713.1
2017-May-16 07:00N 32°06' W 079°16'713.1
2017-May-16 06:30N 31°60' W 079°13'713.2
2017-May-16 06:00N 31°54' W 079°10'713.6
2017-May-16 05:30N 31°48' W 079°06'713.7
2017-May-16 05:00N 31°41' W 079°03'814.1
2017-May-16 04:26N 31°34' W 078°58'614.4
2017-May-16 04:00N 31°29' W 078°55'714.7
2017-May-16 03:30N 31°22' W 078°51'714.7
2017-May-16 03:00N 31°16' W 078°48'5615.6
2017-May-15 23:23N 30°25' W 078°19'1314.1
2017-May-15 22:29N 30°13' W 078°12'612.9
2017-May-15 22:00N 30°08' W 078°09'713.6
2017-May-15 21:30N 30°02' W 078°06'  

Dump ship's entire track history